createdAt,value
2023-02-22T00:00:36.719Z,7.44
2023-02-22T00:03:04.061Z,7.38
2023-02-22T00:05:31.575Z,7.12
2023-02-22T00:07:58.542Z,7.06
2023-02-22T00:10:26.177Z,7.00
2023-02-22T00:12:54.831Z,6.91
2023-02-22T00:15:27.305Z,6.77
2023-02-22T00:17:57.194Z,6.44
2023-02-22T00:20:24.000Z,6.09
2023-02-22T00:22:51.846Z,6.18
2023-02-22T00:25:20.782Z,6.52
2023-02-22T00:27:52.878Z,6.42
2023-02-22T00:30:26.747Z,6.32
2023-02-22T00:32:56.034Z,6.04
2023-02-22T00:35:28.779Z,5.88
2023-02-22T00:37:58.253Z,5.90
2023-02-22T00:40:30.568Z,5.77
2023-02-22T00:42:58.867Z,5.67
2023-02-22T00:45:27.779Z,5.59
2023-02-22T00:47:54.848Z,5.82
2023-02-22T00:50:23.457Z,5.79
2023-02-22T00:52:52.956Z,5.58
2023-02-22T00:55:23.236Z,5.41
2023-02-22T00:57:50.143Z,5.14
2023-02-22T01:00:23.730Z,4.90
2023-02-22T01:02:50.825Z,4.80
2023-02-22T01:05:21.155Z,4.59
2023-02-22T01:07:49.729Z,4.54
2023-02-22T01:10:19.500Z,4.40
2023-02-22T01:12:50.149Z,4.32
2023-02-22T01:15:23.249Z,4.06
2023-02-22T01:17:53.719Z,3.88
2023-02-22T01:20:22.819Z,3.57
2023-02-22T01:22:51.082Z,3.48
2023-02-22T01:25:20.564Z,3.46
2023-02-22T01:27:47.430Z,3.34
2023-02-22T01:30:15.114Z,3.24
2023-02-22T01:32:45.072Z,3.22
2023-02-22T01:35:18.521Z,3.28
2023-02-22T01:37:45.772Z,3.46
2023-02-22T01:40:20.715Z,3.24
2023-02-22T01:42:57.812Z,3.29
2023-02-22T01:45:30.678Z,3.30
2023-02-22T01:48:10.357Z,3.12
2023-02-22T01:50:42.188Z,3.35
2023-02-22T01:53:13.601Z,3.11
2023-02-22T01:55:41.015Z,3.28
2023-02-22T01:58:09.010Z,3.18
2023-02-22T02:00:36.420Z,3.15
2023-02-22T02:03:10.672Z,3.24
2023-02-22T02:05:39.050Z,3.10
2023-02-22T02:08:36.066Z,3.04
2023-02-22T02:11:09.201Z,3.12
2023-02-22T02:13:36.534Z,3.03
2023-02-22T02:16:03.317Z,2.86
2023-02-22T02:18:30.222Z,3.03
2023-02-22T02:20:56.849Z,3.20
2023-02-22T02:23:50.724Z,3.37
2023-02-22T02:26:36.051Z,3.58
2023-02-22T02:29:39.505Z,3.85
2023-02-22T02:32:21.986Z,3.90
2023-02-22T02:35:07.494Z,3.88
2023-02-22T02:37:38.373Z,3.89
2023-02-22T02:40:30.379Z,3.99
2023-02-22T02:43:27.519Z,4.01
2023-02-22T02:46:09.620Z,4.03
2023-02-22T02:48:42.204Z,4.02
2023-02-22T02:51:11.378Z,3.93
2023-02-22T02:53:44.949Z,3.73
2023-02-22T02:56:12.069Z,3.53
2023-02-22T02:58:50.951Z,3.52
2023-02-22T03:01:38.139Z,3.20
2023-02-22T03:04:23.035Z,3.02
2023-02-22T03:07:05.913Z,3.08
2023-02-22T03:09:43.444Z,2.75
2023-02-22T03:12:13.147Z,2.69
2023-02-22T03:14:50.737Z,2.62
2023-02-22T03:17:45.409Z,2.60
2023-02-22T03:20:22.734Z,2.52
2023-02-22T03:22:57.555Z,2.47
2023-02-22T03:25:40.466Z,2.44
2023-02-22T03:28:14.123Z,2.42
2023-02-22T03:30:40.744Z,2.45
2023-02-22T03:33:14.125Z,2.39
2023-02-22T03:35:48.227Z,2.46
2023-02-22T03:38:19.451Z,2.43
2023-02-22T03:40:51.054Z,2.53
2023-02-22T03:43:25.499Z,2.46
2023-02-22T03:45:53.478Z,2.33
2023-02-22T03:48:27.488Z,2.35
2023-02-22T03:50:54.288Z,2.47
2023-02-22T03:53:23.244Z,2.47
2023-02-22T03:55:51.840Z,2.72
2023-02-22T03:58:22.590Z,2.71
2023-02-22T04:00:53.145Z,2.79
2023-02-22T04:03:23.709Z,2.94
2023-02-22T04:05:50.450Z,3.16
2023-02-22T04:08:17.518Z,3.27
2023-02-22T04:10:46.156Z,3.43
2023-02-22T04:13:14.642Z,3.59
2023-02-22T04:15:41.458Z,3.64
2023-02-22T04:18:08.115Z,3.74
2023-02-22T04:20:34.996Z,3.70
2023-02-22T04:23:01.683Z,3.69
2023-02-22T04:25:28.333Z,3.73
2023-02-22T04:27:54.980Z,3.63
2023-02-22T04:30:21.932Z,3.50
2023-02-22T04:32:48.855Z,3.42
2023-02-22T04:35:15.850Z,3.28
2023-02-22T04:37:42.478Z,3.16
2023-02-22T04:40:10.615Z,2.96
2023-02-22T04:42:38.834Z,2.89
2023-02-22T04:45:08.260Z,2.61
2023-02-22T04:47:35.806Z,2.59
2023-02-22T04:50:03.131Z,2.55
2023-02-22T04:52:29.780Z,2.36
2023-02-22T04:54:56.385Z,2.31
2023-02-22T04:57:23.452Z,2.13
2023-02-22T04:59:51.338Z,2.07
2023-02-22T05:02:18.881Z,2.05
2023-02-22T05:04:45.584Z,1.81
2023-02-22T05:07:15.187Z,1.89
2023-02-22T05:09:41.926Z,1.89
2023-02-22T05:12:08.666Z,1.67
2023-02-22T05:14:35.549Z,1.77
2023-02-22T05:17:03.007Z,1.74
2023-02-22T05:19:29.805Z,1.79
2023-02-22T05:21:58.841Z,1.78
2023-02-22T05:24:25.480Z,1.72
2023-02-22T05:26:53.330Z,2.20
2023-02-22T05:29:22.994Z,2.09
2023-02-22T05:31:49.622Z,2.04
2023-02-22T05:34:16.677Z,2.06
2023-02-22T05:36:46.608Z,2.24
2023-02-22T05:39:13.273Z,1.98
2023-02-22T05:41:42.138Z,1.96
2023-02-22T05:44:08.771Z,2.00
2023-02-22T05:46:35.574Z,2.17
2023-02-22T05:49:02.278Z,1.79
2023-02-22T05:51:28.868Z,1.74
2023-02-22T05:53:55.955Z,2.01
2023-02-22T05:56:28.036Z,1.98
2023-02-22T05:58:54.908Z,1.90
2023-02-22T06:01:21.993Z,1.75
2023-02-22T06:03:50.296Z,1.91
2023-02-22T06:06:19.611Z,1.70
2023-02-22T06:08:47.260Z,1.88
2023-02-22T06:11:14.004Z,2.01
2023-02-22T06:13:40.850Z,1.83
2023-02-22T06:16:08.276Z,2.10
2023-02-22T06:18:35.156Z,2.16
2023-02-22T06:21:01.790Z,2.10
2023-02-22T06:23:28.378Z,2.19
2023-02-22T06:25:55.396Z,2.21
2023-02-22T06:28:24.273Z,2.28
2023-02-22T06:30:53.060Z,2.36
2023-02-22T06:33:19.622Z,2.53
2023-02-22T06:35:46.861Z,2.59
2023-02-22T06:38:21.583Z,2.62
2023-02-22T06:40:48.195Z,2.86
2023-02-22T06:43:14.729Z,2.99
2023-02-22T06:45:41.356Z,3.21
2023-02-22T06:48:09.186Z,3.18
2023-02-22T06:50:36.206Z,3.34
2023-02-22T06:53:03.680Z,3.49
2023-02-22T06:55:33.565Z,3.63
2023-02-22T06:58:01.137Z,3.75
2023-02-22T07:00:30.194Z,3.95
2023-02-22T07:02:57.892Z,4.18
2023-02-22T07:05:26.376Z,4.36
2023-02-22T07:07:57.706Z,4.53
2023-02-22T07:10:30.346Z,5.05
2023-02-22T07:12:58.291Z,5.29
2023-02-22T07:15:28.069Z,5.87
2023-02-22T07:17:55.363Z,6.16
2023-02-22T07:20:23.220Z,6.32
2023-02-22T07:22:51.626Z,6.33
2023-02-22T07:25:19.430Z,6.69
2023-02-22T07:27:47.264Z,7.14
2023-02-22T07:30:31.239Z,7.26
2023-02-22T07:33:01.010Z,7.45
2023-02-22T07:35:30.543Z,7.61
2023-02-22T07:37:57.595Z,7.51
2023-02-22T07:40:27.750Z,7.98
2023-02-22T07:43:00.346Z,9.08
2023-02-22T07:45:30.671Z,9.93
2023-02-22T07:47:58.216Z,10.45
2023-02-22T07:50:26.839Z,10.40
2023-02-22T07:52:56.425Z,9.79
2023-02-22T07:55:26.013Z,10.12
2023-02-22T07:57:58.388Z,10.01
2023-02-22T08:00:25.209Z,10.23
2023-02-22T08:02:51.990Z,11.10
2023-02-22T08:05:19.029Z,12.14
2023-02-22T08:07:47.872Z,12.95
2023-02-22T08:10:16.495Z,13.84
2023-02-22T08:12:46.361Z,13.68
2023-02-22T08:15:34.836Z,13.64
2023-02-22T08:18:05.826Z,14.79
2023-02-22T08:20:32.430Z,15.52
2023-02-22T08:22:59.049Z,16.09
2023-02-22T08:25:31.943Z,14.57
2023-02-22T08:28:04.743Z,14.31
2023-02-22T08:30:32.676Z,12.99
2023-02-22T08:32:59.811Z,12.42
2023-02-22T08:35:32.522Z,12.49
2023-02-22T08:38:02.295Z,11.21
2023-02-22T08:40:31.904Z,10.88
2023-02-22T08:42:58.732Z,11.33
2023-02-22T08:45:25.746Z,10.57
2023-02-22T08:47:52.357Z,10.71
2023-02-22T08:50:27.836Z,10.78
2023-02-22T08:52:56.180Z,10.48
2023-02-22T08:55:26.365Z,11.54
2023-02-22T08:57:52.979Z,11.78
2023-02-22T09:00:21.239Z,12.29
2023-02-22T09:02:47.811Z,12.58
2023-02-22T09:05:17.055Z,12.18
2023-02-22T09:07:44.790Z,12.10
2023-02-22T09:10:18.575Z,11.70
2023-02-22T09:12:45.220Z,11.65
2023-02-22T09:15:15.481Z,11.70
2023-02-22T09:17:42.305Z,12.49
2023-02-22T09:20:11.891Z,12.25
2023-02-22T09:22:39.241Z,12.95
2023-02-22T09:25:16.330Z,12.90
2023-02-22T09:27:44.303Z,12.56
2023-02-22T09:30:37.515Z,13.24
2023-02-22T09:33:10.124Z,13.05
2023-02-22T09:35:42.224Z,12.83
2023-02-22T09:38:10.657Z,12.95
2023-02-22T09:40:45.243Z,12.62
2023-02-22T09:43:24.678Z,13.41
2023-02-22T09:46:22.247Z,12.90
2023-02-22T09:48:58.287Z,13.62
2023-02-22T09:51:30.493Z,13.58
2023-02-22T09:54:01.315Z,13.90
2023-02-22T09:56:29.752Z,13.39
2023-02-22T09:59:01.761Z,13.85
2023-02-22T10:01:48.587Z,14.59
2023-02-22T10:04:36.449Z,15.17
2023-02-22T10:07:20.593Z,13.51
2023-02-22T10:09:49.564Z,12.77
2023-02-22T10:12:42.308Z,12.97
2023-02-22T10:15:27.519Z,13.70
2023-02-22T10:18:19.865Z,13.67
2023-02-22T10:20:46.380Z,13.00
2023-02-22T10:23:33.540Z,14.18
2023-02-22T10:26:19.071Z,14.48
2023-02-22T10:29:02.656Z,14.10
2023-02-22T10:31:33.743Z,14.00
2023-02-22T10:34:03.984Z,14.17
2023-02-22T10:36:30.509Z,14.20
2023-02-22T10:39:20.841Z,14.16
2023-02-22T10:41:54.229Z,13.93
2023-02-22T10:44:20.954Z,12.91
2023-02-22T10:46:48.715Z,12.85
2023-02-22T10:49:26.644Z,13.09
2023-02-22T10:52:01.270Z,12.38
2023-02-22T10:54:40.943Z,13.66
2023-02-22T10:57:07.996Z,14.87
2023-02-22T10:59:38.153Z,13.53
2023-02-22T11:02:15.215Z,14.05
2023-02-22T11:04:54.305Z,13.52
2023-02-22T11:07:27.233Z,13.45
2023-02-22T11:09:59.810Z,13.37
2023-02-22T11:12:33.381Z,13.56
2023-02-22T11:15:22.281Z,12.79
2023-02-22T11:17:51.853Z,12.95
2023-02-22T11:20:27.787Z,12.69
2023-02-22T11:22:57.729Z,13.30
2023-02-22T11:25:28.289Z,13.58
2023-02-22T11:27:55.279Z,13.03
2023-02-22T11:30:24.749Z,12.78
2023-02-22T11:32:59.343Z,12.53
2023-02-22T11:35:34.771Z,12.85
2023-02-22T11:38:25.503Z,12.96
2023-02-22T11:41:17.304Z,12.57
2023-02-22T11:43:48.707Z,13.01
2023-02-22T11:46:27.608Z,13.38
2023-02-22T11:49:09.651Z,13.53
2023-02-22T11:51:57.935Z,13.28
2023-02-22T11:54:53.183Z,14.16
2023-02-22T11:57:37.327Z,14.28
2023-02-22T12:00:24.873Z,14.34
2023-02-22T12:03:11.841Z,14.90
2023-02-22T12:06:35.546Z,15.47
2023-02-22T12:09:24.252Z,14.97
2023-02-22T12:12:07.978Z,15.12
2023-02-22T12:14:40.104Z,14.84
2023-02-22T12:17:23.436Z,14.83
2023-02-22T12:20:18.812Z,15.07
2023-02-22T12:22:55.442Z,15.27
2023-02-22T12:25:26.610Z,14.60
2023-02-22T12:28:01.000Z,14.77
2023-02-22T12:30:31.594Z,15.08
2023-02-22T12:33:12.023Z,14.68
2023-02-22T12:35:46.174Z,14.45
2023-02-22T12:38:31.167Z,14.39
2023-02-22T12:41:13.602Z,14.37
2023-02-22T12:43:47.257Z,14.53
2023-02-22T12:46:20.186Z,14.39
2023-02-22T12:48:49.636Z,14.31
2023-02-22T12:51:34.543Z,14.39
2023-02-22T12:54:22.080Z,14.38
2023-02-22T12:57:01.190Z,14.41
2023-02-22T13:00:17.906Z,13.93
2023-02-22T13:02:57.912Z,14.31
2023-02-22T13:05:24.650Z,14.04
2023-02-22T13:08:29.800Z,14.08
2023-02-22T13:11:01.909Z,13.95
2023-02-22T13:13:55.189Z,13.47
2023-02-22T13:16:52.716Z,13.34
2023-02-22T13:19:31.791Z,13.54
2023-02-22T13:22:07.280Z,13.62
2023-02-22T13:24:42.908Z,13.53
2023-02-22T13:27:43.583Z,13.45
2023-02-22T13:30:20.195Z,13.89
2023-02-22T13:33:05.551Z,13.98
2023-02-22T13:35:39.073Z,14.34
2023-02-22T13:38:49.475Z,14.01
2023-02-22T13:41:34.611Z,13.60
2023-02-22T13:44:25.970Z,13.62
2023-02-22T13:47:14.636Z,13.59
2023-02-22T13:49:59.959Z,13.45
2023-02-22T13:52:31.179Z,13.49
2023-02-22T13:55:06.795Z,13.69
2023-02-22T13:57:37.108Z,13.60
2023-02-22T14:00:15.983Z,13.56
2023-02-22T14:03:14.921Z,13.38
2023-02-22T14:05:50.897Z,13.58
2023-02-22T14:08:17.606Z,13.17
2023-02-22T14:10:44.172Z,13.64
2023-02-22T14:13:11.563Z,13.61
2023-02-22T14:15:58.141Z,13.73
2023-02-22T14:18:27.236Z,13.41
2023-02-22T14:21:17.121Z,13.33
2023-02-22T14:23:45.893Z,13.18
2023-02-22T14:26:18.834Z,13.00
2023-02-22T14:28:58.798Z,13.12
2023-02-22T14:31:37.239Z,13.04
2023-02-22T14:34:15.374Z,13.13
2023-02-22T14:36:52.538Z,13.31
2023-02-22T14:39:38.316Z,13.04
2023-02-22T14:42:19.694Z,13.07
2023-02-22T14:45:17.158Z,12.67
2023-02-22T14:48:16.411Z,12.56
2023-02-22T14:51:20.269Z,12.69
2023-02-22T14:54:07.380Z,12.39
2023-02-22T14:57:14.782Z,12.57
2023-02-22T14:59:53.405Z,12.87
2023-02-22T15:02:22.810Z,12.44
2023-02-22T15:04:54.712Z,12.55
2023-02-22T15:07:28.802Z,12.61
2023-02-22T15:10:26.289Z,12.52
2023-02-22T15:13:08.944Z,12.43
2023-02-22T15:15:43.106Z,12.27
2023-02-22T15:18:19.627Z,12.18
2023-02-22T15:20:48.457Z,12.20
2023-02-22T15:23:16.891Z,12.01
2023-02-22T15:25:49.103Z,11.93
2023-02-22T15:28:18.229Z,11.84
2023-02-22T15:30:45.469Z,11.73
2023-02-22T15:33:24.743Z,11.80
2023-02-22T15:35:57.782Z,11.91
2023-02-22T15:38:30.075Z,11.60
2023-02-22T15:41:05.630Z,11.52
2023-02-22T15:43:32.805Z,11.40
2023-02-22T15:46:01.028Z,11.22
2023-02-22T15:48:29.600Z,11.17
2023-02-22T15:51:12.433Z,11.05
2023-02-22T15:53:42.024Z,11.05
2023-02-22T15:56:13.289Z,10.95
2023-02-22T15:58:41.534Z,10.97
2023-02-22T16:01:18.727Z,10.81
2023-02-22T16:03:48.983Z,10.84
2023-02-22T16:06:25.164Z,10.64
2023-02-22T16:08:55.363Z,10.58
2023-02-22T16:11:32.299Z,10.54
2023-02-22T16:14:04.968Z,10.47
2023-02-22T16:16:34.289Z,10.33
2023-02-22T16:19:42.094Z,10.20
2023-02-22T16:22:26.947Z,10.09
2023-02-22T16:24:54.677Z,9.93
2023-02-22T16:27:24.389Z,9.70
2023-02-22T16:30:24.374Z,9.51
2023-02-22T16:32:53.622Z,9.22
2023-02-22T16:35:20.470Z,9.03
2023-02-22T16:37:52.404Z,8.87
2023-02-22T16:40:25.634Z,8.75
2023-02-22T16:42:52.382Z,8.59
2023-02-22T16:45:20.610Z,8.47
2023-02-22T16:47:47.764Z,8.29
2023-02-22T16:50:17.072Z,8.15
2023-02-22T16:52:43.660Z,8.08
2023-02-22T16:55:13.767Z,7.97
2023-02-22T16:57:41.620Z,7.90
2023-02-22T17:00:31.552Z,7.86
2023-02-22T17:02:59.890Z,7.80
2023-02-22T17:05:26.627Z,7.66
2023-02-22T17:07:53.252Z,7.63
2023-02-22T17:10:20.092Z,7.51
2023-02-22T17:12:53.365Z,7.49
2023-02-22T17:15:37.475Z,7.49
2023-02-22T17:18:14.048Z,7.42
2023-02-22T17:20:40.716Z,7.33
2023-02-22T17:23:09.902Z,7.26
2023-02-22T17:25:51.222Z,7.22
2023-02-22T17:28:17.846Z,7.20
2023-02-22T17:30:47.847Z,7.08
2023-02-22T17:33:17.916Z,7.04
2023-02-22T17:35:46.944Z,7.30
2023-02-22T17:38:18.443Z,7.44
2023-02-22T17:40:49.487Z,7.46
2023-02-22T17:43:17.802Z,7.40
2023-02-22T17:45:44.408Z,7.30
2023-02-22T17:48:10.993Z,7.27
2023-02-22T17:50:39.268Z,7.13
2023-02-22T17:53:06.522Z,7.13
2023-02-22T17:55:36.407Z,7.00
2023-02-22T17:58:03.013Z,6.94
2023-02-22T18:00:33.736Z,6.85
2023-02-22T18:03:03.187Z,6.72
2023-02-22T18:05:30.698Z,6.61
2023-02-22T18:07:57.258Z,6.46
2023-02-22T18:10:26.380Z,6.57
2023-02-22T18:12:53.980Z,6.44
2023-02-22T18:15:28.246Z,6.43
2023-02-22T18:17:55.773Z,6.72
2023-02-22T18:20:38.251Z,6.69
2023-02-22T18:23:12.174Z,7.08
2023-02-22T18:25:40.248Z,7.24
2023-02-22T18:28:08.156Z,7.39
2023-02-22T18:30:36.828Z,7.50
2023-02-22T18:33:04.223Z,7.50
2023-02-22T18:35:31.250Z,7.46
2023-02-22T18:37:57.920Z,7.33
2023-02-22T18:40:26.855Z,7.44
2023-02-22T18:42:53.435Z,7.40
2023-02-22T18:45:21.100Z,7.45
2023-02-22T18:47:47.731Z,7.40
2023-02-22T18:50:17.235Z,7.38
2023-02-22T18:52:45.876Z,7.40
2023-02-22T18:55:18.288Z,7.40
2023-02-22T18:57:46.641Z,7.44
2023-02-22T19:00:16.670Z,7.38
2023-02-22T19:02:43.659Z,7.45
2023-02-22T19:05:12.133Z,7.38
2023-02-22T19:07:39.544Z,7.31
2023-02-22T19:10:07.188Z,7.31
2023-02-22T19:12:34.003Z,7.28
2023-02-22T19:15:01.030Z,7.27
2023-02-22T19:17:32.270Z,7.21
2023-02-22T19:19:58.872Z,7.05
2023-02-22T19:22:32.817Z,7.02
2023-02-22T19:25:03.285Z,7.10
2023-02-22T19:27:30.523Z,7.07
2023-02-22T19:29:57.845Z,7.02
2023-02-22T19:32:24.753Z,6.98
2023-02-22T19:35:02.048Z,7.02
2023-02-22T19:37:35.747Z,7.01
2023-02-22T19:40:08.900Z,6.97
2023-02-22T19:42:35.948Z,6.97
2023-02-22T19:45:02.536Z,7.11
2023-02-22T19:47:29.179Z,7.08
2023-02-22T19:49:59.625Z,7.19
2023-02-22T19:52:28.944Z,7.16
2023-02-22T19:54:55.647Z,7.18
2023-02-22T19:57:24.266Z,7.18
2023-02-22T19:59:51.451Z,7.22
2023-02-22T20:02:18.207Z,7.27
2023-02-22T20:04:44.904Z,7.30
2023-02-22T20:07:11.504Z,7.28
2023-02-22T20:09:40.195Z,7.28
2023-02-22T20:12:07.876Z,7.29
2023-02-22T20:14:35.187Z,7.30
2023-02-22T20:17:01.919Z,7.34
2023-02-22T20:19:28.780Z,7.31
2023-02-22T20:21:56.029Z,7.32
2023-02-22T20:24:23.681Z,7.36
2023-02-22T20:26:51.037Z,7.34
2023-02-22T20:29:17.965Z,7.28
2023-02-22T20:31:44.902Z,7.26
2023-02-22T20:34:11.812Z,7.30
2023-02-22T20:36:41.367Z,7.31
2023-02-22T20:39:13.341Z,7.33
2023-02-22T20:41:42.140Z,7.24
2023-02-22T20:44:13.528Z,7.26
2023-02-22T20:46:40.571Z,7.23
2023-02-22T20:49:11.116Z,7.24
2023-02-22T20:51:39.526Z,7.31
2023-02-22T20:54:08.498Z,7.29
2023-02-22T20:56:35.133Z,7.27
2023-02-22T20:59:03.363Z,7.24
2023-02-22T21:01:31.334Z,7.33
2023-02-22T21:04:01.926Z,7.31
2023-02-22T21:06:29.135Z,7.25
2023-02-22T21:08:58.082Z,7.29
2023-02-22T21:11:26.965Z,7.26
2023-02-22T21:13:53.806Z,7.21
2023-02-22T21:16:31.860Z,7.27
2023-02-22T21:19:01.484Z,7.27
2023-02-22T21:21:29.254Z,7.19
2023-02-22T21:23:57.569Z,7.16
2023-02-22T21:26:29.666Z,7.21
2023-02-22T21:29:00.448Z,7.22
2023-02-22T21:31:28.389Z,7.30
2023-02-22T21:33:58.023Z,7.24
2023-02-22T21:36:28.894Z,7.13
2023-02-22T21:38:58.755Z,7.20
2023-02-22T21:41:30.195Z,7.23
2023-02-22T21:43:58.337Z,7.14
2023-02-22T21:46:26.662Z,7.12
2023-02-22T21:48:53.506Z,7.04
2023-02-22T21:51:23.920Z,7.02
2023-02-22T21:53:53.122Z,7.04
2023-02-22T21:56:24.330Z,7.07
2023-02-22T21:59:02.917Z,6.94
2023-02-22T22:01:32.773Z,6.98
2023-02-22T22:04:00.052Z,7.01
2023-02-22T22:06:28.454Z,6.93
2023-02-22T22:08:56.002Z,6.93
2023-02-22T22:11:25.331Z,6.85
2023-02-22T22:13:57.576Z,6.80
2023-02-22T22:16:27.156Z,6.80
2023-02-22T22:18:55.078Z,6.81
2023-02-22T22:21:23.647Z,6.76
2023-02-22T22:23:54.458Z,6.76
2023-02-22T22:26:24.527Z,6.75
2023-02-22T22:28:54.119Z,6.84
2023-02-22T22:31:23.667Z,6.85
2023-02-22T22:33:50.837Z,6.79
2023-02-22T22:36:21.698Z,6.78
2023-02-22T22:38:48.925Z,6.80
2023-02-22T22:41:19.381Z,6.89
2023-02-22T22:43:46.500Z,6.84
2023-02-22T22:46:16.673Z,6.78
2023-02-22T22:48:46.913Z,6.81
2023-02-22T22:51:20.051Z,6.71
2023-02-22T22:53:48.872Z,6.70
2023-02-22T22:56:18.513Z,6.71
2023-02-22T22:58:53.663Z,6.73
2023-02-22T23:01:34.229Z,6.69
2023-02-22T23:04:03.117Z,6.68
2023-02-22T23:06:38.624Z,6.76
2023-02-22T23:09:27.424Z,6.70
2023-02-22T23:12:16.789Z,6.69
2023-02-22T23:14:44.650Z,6.63
2023-02-22T23:17:16.019Z,6.67
2023-02-22T23:19:47.486Z,6.66
2023-02-22T23:22:14.472Z,6.52
2023-02-22T23:24:41.676Z,6.55
2023-02-22T23:27:11.022Z,6.48
2023-02-22T23:29:42.637Z,6.53
2023-02-22T23:32:09.491Z,6.44
2023-02-22T23:34:37.213Z,6.42
2023-02-22T23:37:03.904Z,6.42
2023-02-22T23:39:30.532Z,6.40
2023-02-22T23:42:01.186Z,6.46
2023-02-22T23:44:28.856Z,6.39
2023-02-22T23:46:56.120Z,6.32
2023-02-22T23:49:25.820Z,6.36
2023-02-22T23:51:52.663Z,6.36
2023-02-22T23:54:20.598Z,6.30
2023-02-22T23:56:57.001Z,6.36
2023-02-22T23:59:27.460Z,6.55
